createdAt,value
2023-01-17T00:02:10.487Z,3.70
2023-01-17T00:04:56.299Z,3.47
2023-01-17T00:07:43.306Z,4.40
2023-01-17T00:10:12.672Z,3.60
2023-01-17T00:12:47.184Z,2.90
2023-01-17T00:15:16.590Z,2.90
2023-01-17T00:17:44.842Z,3.00
2023-01-17T00:20:32.598Z,2.70
2023-01-17T00:23:17.743Z,2.27
2023-01-17T00:26:04.491Z,2.27
2023-01-17T00:28:34.098Z,2.60
2023-01-17T00:31:01.556Z,2.80
2023-01-17T00:33:29.016Z,3.10
2023-01-17T00:35:57.013Z,3.27
2023-01-17T00:38:24.973Z,3.40
2023-01-17T00:40:52.085Z,3.43
2023-01-17T00:43:38.572Z,4.07
2023-01-17T00:46:25.804Z,4.43
2023-01-17T00:49:11.853Z,4.30
2023-01-17T00:51:57.731Z,4.60
2023-01-17T00:54:43.800Z,4.40
2023-01-17T00:57:29.999Z,4.77
2023-01-17T01:00:15.658Z,4.30
2023-01-17T01:03:03.101Z,5.23
2023-01-17T01:05:48.870Z,4.87
2023-01-17T01:08:35.777Z,5.17
2023-01-17T01:11:23.521Z,4.67
2023-01-17T01:14:09.737Z,4.10
2023-01-17T01:16:55.679Z,4.30
2023-01-17T01:19:42.874Z,4.57
2023-01-17T01:22:29.082Z,3.80
2023-01-17T01:25:15.153Z,3.70
2023-01-17T01:28:01.305Z,4.10
2023-01-17T01:30:47.417Z,3.27
2023-01-17T01:33:18.575Z,2.80
2023-01-17T01:35:49.459Z,2.50
2023-01-17T01:38:17.793Z,2.80
2023-01-17T01:40:47.121Z,2.90
2023-01-17T01:43:16.214Z,2.27
2023-01-17T01:45:46.905Z,2.33
2023-01-17T01:48:24.132Z,2.80
2023-01-17T01:50:53.838Z,2.50
2023-01-17T01:53:23.109Z,2.43
2023-01-17T01:55:52.890Z,2.00
2023-01-17T01:58:23.338Z,1.80
2023-01-17T02:00:51.669Z,1.70
2023-01-17T02:03:21.821Z,1.50
2023-01-17T02:05:50.124Z,1.17
2023-01-17T02:08:20.688Z,1.40
2023-01-17T02:10:49.059Z,1.60
2023-01-17T02:13:18.369Z,1.50
2023-01-17T02:15:52.248Z,1.40
2023-01-17T02:18:23.895Z,1.37
2023-01-17T02:21:02.543Z,0.90
2023-01-17T02:23:50.796Z,0.60
2023-01-17T02:26:43.007Z,0.40
2023-01-17T02:29:26.385Z,0.50
2023-01-17T02:31:58.333Z,0.50
2023-01-17T02:34:30.501Z,0.87
2023-01-17T02:37:03.223Z,0.97
2023-01-17T02:39:34.639Z,1.17
2023-01-17T02:42:05.854Z,3.13
2023-01-17T02:44:41.259Z,0.67
2023-01-17T02:47:22.592Z,0.40
2023-01-17T02:49:50.921Z,0.70
2023-01-17T02:52:24.400Z,1.67
2023-01-17T02:55:01.079Z,1.20
2023-01-17T02:57:47.557Z,2.37
2023-01-17T03:00:19.445Z,1.07
2023-01-17T03:02:52.005Z,1.17
2023-01-17T03:05:23.389Z,0.97
2023-01-17T03:07:52.894Z,0.40
2023-01-17T03:10:22.255Z,2.23
2023-01-17T03:12:50.448Z,1.57
2023-01-17T03:15:19.001Z,1.27
2023-01-17T03:17:50.216Z,0.20
2023-01-17T03:20:18.963Z,2.90
2023-01-17T03:22:47.218Z,0.77
2023-01-17T03:25:15.501Z,0.60
2023-01-17T03:27:43.758Z,0.20
2023-01-17T03:30:12.506Z,0.43
2023-01-17T03:32:40.706Z,1.13
2023-01-17T03:35:10.873Z,2.67
2023-01-17T03:37:39.360Z,0.40
2023-01-17T03:40:08.259Z,0.10
2023-01-17T03:42:36.506Z,0.30
2023-01-17T03:45:04.768Z,0.20
2023-01-17T03:47:32.958Z,0.10
2023-01-17T03:50:01.166Z,0.40
2023-01-17T03:52:30.721Z,0.43
2023-01-17T03:54:58.930Z,0.10
2023-01-17T03:57:27.119Z,0.93
2023-01-17T03:59:55.486Z,1.17
2023-01-17T04:02:24.223Z,1.30
2023-01-17T04:04:52.476Z,0.63
2023-01-17T04:07:20.697Z,0.50
2023-01-17T04:09:50.364Z,0.93
2023-01-17T04:12:18.740Z,1.00
2023-01-17T04:14:48.131Z,0.70
2023-01-17T04:17:18.139Z,1.37
2023-01-17T04:19:46.394Z,1.90
2023-01-17T04:22:14.676Z,0.40
2023-01-17T04:24:42.855Z,0.50
2023-01-17T04:27:14.244Z,0.30
2023-01-17T04:29:42.503Z,1.07
2023-01-17T04:32:11.088Z,1.23
2023-01-17T04:34:39.284Z,0.83
2023-01-17T04:37:07.492Z,2.43
2023-01-17T04:39:35.821Z,0.60
2023-01-17T04:42:04.053Z,0.60
2023-01-17T04:44:33.621Z,1.77
2023-01-17T04:47:02.903Z,0.83
2023-01-17T04:49:31.105Z,1.33
2023-01-17T04:51:59.537Z,1.30
2023-01-17T04:54:27.846Z,1.83
2023-01-17T04:56:56.077Z,1.20
2023-01-17T04:59:24.406Z,1.57
2023-01-17T05:01:54.066Z,1.80
2023-01-17T05:04:22.291Z,2.53
2023-01-17T05:06:50.501Z,1.93
2023-01-17T05:09:18.714Z,3.60
2023-01-17T05:11:46.945Z,4.77
2023-01-17T05:14:15.292Z,2.23
2023-01-17T05:16:43.527Z,2.50
2023-01-17T05:19:13.212Z,3.50
2023-01-17T05:21:41.558Z,1.80
2023-01-17T05:24:09.911Z,2.73
2023-01-17T05:26:38.184Z,4.70
2023-01-17T05:29:06.492Z,4.30
2023-01-17T05:31:34.770Z,2.17
2023-01-17T05:34:03.032Z,7.57
2023-01-17T05:36:32.657Z,3.83
2023-01-17T05:39:00.949Z,4.67
2023-01-17T05:41:29.198Z,4.67
2023-01-17T05:43:57.424Z,3.53
2023-01-17T05:46:25.794Z,3.90
2023-01-17T05:48:54.100Z,3.17
2023-01-17T05:51:22.544Z,3.80
2023-01-17T05:53:52.251Z,5.70
2023-01-17T05:56:20.465Z,4.87
2023-01-17T05:58:48.684Z,3.53
2023-01-17T06:01:17.716Z,4.53
2023-01-17T06:03:46.254Z,4.83
2023-01-17T06:06:14.831Z,4.43
2023-01-17T06:08:43.496Z,5.50
2023-01-17T06:11:13.784Z,2.87
2023-01-17T06:13:43.053Z,6.30
2023-01-17T06:16:11.822Z,5.87
2023-01-17T06:18:40.193Z,4.27
2023-01-17T06:21:08.543Z,6.13
2023-01-17T06:23:38.051Z,5.00
2023-01-17T06:26:08.379Z,4.57
2023-01-17T06:28:38.153Z,5.20
2023-01-17T06:31:09.694Z,4.37
2023-01-17T06:33:38.563Z,3.90
2023-01-17T06:36:07.512Z,4.57
2023-01-17T06:38:35.847Z,5.10
2023-01-17T06:41:06.034Z,7.93
2023-01-17T06:43:34.970Z,4.57
2023-01-17T06:46:04.904Z,5.17
2023-01-17T06:48:33.352Z,5.97
2023-01-17T06:51:01.970Z,5.47
2023-01-17T06:53:30.573Z,5.20
2023-01-17T06:55:59.175Z,3.33
2023-01-17T06:58:27.431Z,3.73
2023-01-17T07:00:56.889Z,4.73
2023-01-17T07:03:27.397Z,2.70
2023-01-17T07:05:55.749Z,4.93
2023-01-17T07:08:23.991Z,4.47
2023-01-17T07:10:52.419Z,3.67
2023-01-17T07:13:20.665Z,3.00
2023-01-17T07:15:48.922Z,5.33
2023-01-17T07:18:20.552Z,6.03
2023-01-17T07:20:50.373Z,4.97
2023-01-17T07:23:19.471Z,4.00
2023-01-17T07:25:52.366Z,10.30
2023-01-17T07:28:20.624Z,5.07
2023-01-17T07:30:49.085Z,8.83
2023-01-17T07:33:17.621Z,4.20
2023-01-17T07:35:46.208Z,6.27
2023-01-17T07:38:16.579Z,5.47
2023-01-17T07:40:44.828Z,5.40
2023-01-17T07:43:14.467Z,4.73
2023-01-17T07:45:43.862Z,4.73
2023-01-17T07:48:12.227Z,8.87
2023-01-17T07:50:40.816Z,7.57
2023-01-17T07:53:09.089Z,4.77
2023-01-17T07:55:39.026Z,5.67
2023-01-17T07:58:07.335Z,7.40
2023-01-17T08:00:35.664Z,6.43
2023-01-17T08:03:03.997Z,7.23
2023-01-17T08:05:32.404Z,7.80
2023-01-17T08:08:00.925Z,7.53
2023-01-17T08:10:29.367Z,5.77
2023-01-17T08:13:00.279Z,6.00
2023-01-17T08:15:28.638Z,6.93
2023-01-17T08:17:57.699Z,6.57
2023-01-17T08:20:28.002Z,7.63
2023-01-17T08:22:57.027Z,5.23
2023-01-17T08:25:26.816Z,5.43
2023-01-17T08:27:59.521Z,9.43
2023-01-17T08:30:27.908Z,5.83
2023-01-17T08:32:56.213Z,7.60
2023-01-17T08:35:24.684Z,8.33
2023-01-17T08:37:55.690Z,5.67
2023-01-17T08:40:24.332Z,10.53
2023-01-17T08:42:57.452Z,10.57
2023-01-17T08:45:30.195Z,8.23
2023-01-17T08:48:00.437Z,7.33
2023-01-17T08:50:29.495Z,6.23
2023-01-17T08:53:01.299Z,7.40
2023-01-17T08:55:30.056Z,5.63
2023-01-17T08:57:58.617Z,6.60
2023-01-17T09:00:29.953Z,6.47
2023-01-17T09:02:59.301Z,6.13
2023-01-17T09:05:28.356Z,6.50
2023-01-17T09:07:57.520Z,4.30
2023-01-17T09:10:31.866Z,4.77
2023-01-17T09:13:00.442Z,4.97
2023-01-17T09:15:36.543Z,5.27
2023-01-17T09:18:06.980Z,6.17
2023-01-17T09:20:35.613Z,5.67
2023-01-17T09:23:04.649Z,4.13
2023-01-17T09:25:35.682Z,5.67
2023-01-17T09:28:04.178Z,8.00
2023-01-17T09:30:34.232Z,6.47
2023-01-17T09:33:02.680Z,7.07
2023-01-17T09:35:31.230Z,6.57
2023-01-17T09:37:59.648Z,5.50
2023-01-17T09:40:28.085Z,5.67
2023-01-17T09:43:01.459Z,4.50
2023-01-17T09:45:34.055Z,6.77
2023-01-17T09:48:08.609Z,8.20
2023-01-17T09:50:43.954Z,9.57
2023-01-17T09:53:15.074Z,9.87
2023-01-17T09:55:45.981Z,8.47
2023-01-17T09:58:18.896Z,11.23
2023-01-17T10:00:53.438Z,9.17
2023-01-17T10:03:41.236Z,8.97
2023-01-17T10:06:23.826Z,9.63
2023-01-17T10:09:03.959Z,11.43
2023-01-17T10:11:37.835Z,11.17
2023-01-17T10:14:14.717Z,12.70
2023-01-17T10:16:47.105Z,13.27
2023-01-17T10:19:26.757Z,9.97
2023-01-17T10:22:02.225Z,11.27
2023-01-17T10:24:44.105Z,12.13
2023-01-17T10:27:17.247Z,9.30
2023-01-17T10:29:48.085Z,13.73
2023-01-17T10:32:16.489Z,13.20
2023-01-17T10:34:49.491Z,10.53
2023-01-17T10:37:19.928Z,12.43
2023-01-17T10:39:50.335Z,11.87
2023-01-17T10:42:23.394Z,11.57
2023-01-17T10:44:54.561Z,13.27
2023-01-17T10:47:23.791Z,14.83
2023-01-17T10:49:54.487Z,13.17
2023-01-17T10:52:27.063Z,11.27
2023-01-17T10:55:03.939Z,13.47
2023-01-17T10:57:36.197Z,12.47
2023-01-17T11:00:13.205Z,15.13
2023-01-17T11:02:43.366Z,15.47
2023-01-17T11:05:20.082Z,17.03
2023-01-17T11:07:58.333Z,11.80
2023-01-17T11:10:36.466Z,13.17
2023-01-17T11:13:06.080Z,10.63
2023-01-17T11:15:38.759Z,12.07
2023-01-17T11:18:08.460Z,11.97
2023-01-17T11:20:40.034Z,14.37
2023-01-17T11:23:13.357Z,12.73
2023-01-17T11:25:42.296Z,15.10
2023-01-17T11:28:21.801Z,12.73
2023-01-17T11:30:54.524Z,17.00
2023-01-17T11:33:45.056Z,14.27
2023-01-17T11:36:19.983Z,10.83
2023-01-17T11:38:58.544Z,16.80
2023-01-17T11:41:28.185Z,10.27
2023-01-17T11:43:57.552Z,11.67
2023-01-17T11:46:28.247Z,11.80
2023-01-17T11:48:57.587Z,11.37
2023-01-17T11:51:31.305Z,9.40
2023-01-17T11:54:08.746Z,13.53
2023-01-17T11:56:40.223Z,11.23
2023-01-17T11:59:23.374Z,14.30
2023-01-17T12:01:55.767Z,12.20
2023-01-17T12:04:26.025Z,9.80
2023-01-17T12:07:12.990Z,12.43
2023-01-17T12:09:46.707Z,8.20
2023-01-17T12:12:36.042Z,12.83
2023-01-17T12:15:08.297Z,11.60
2023-01-17T12:17:45.737Z,11.00
2023-01-17T12:20:22.625Z,9.20
2023-01-17T12:23:13.832Z,8.87
2023-01-17T12:25:57.734Z,9.50
2023-01-17T12:28:37.800Z,11.80
2023-01-17T12:31:11.686Z,13.97
2023-01-17T12:33:45.702Z,14.23
2023-01-17T12:36:19.350Z,10.97
2023-01-17T12:38:49.367Z,9.20
2023-01-17T12:41:23.472Z,12.33
2023-01-17T12:43:54.268Z,16.83
2023-01-17T12:46:27.136Z,9.50
2023-01-17T12:48:58.197Z,10.97
2023-01-17T12:51:29.367Z,10.00
2023-01-17T12:54:00.175Z,11.33
2023-01-17T12:56:31.892Z,11.73
2023-01-17T12:59:05.865Z,14.20
2023-01-17T13:01:39.702Z,9.30
2023-01-17T13:04:13.283Z,8.80
2023-01-17T13:06:46.635Z,8.17
2023-01-17T13:09:18.165Z,9.47
2023-01-17T13:11:50.280Z,9.17
2023-01-17T13:14:18.568Z,12.33
2023-01-17T13:16:50.527Z,14.07
2023-01-17T13:19:23.298Z,11.30
2023-01-17T13:21:51.820Z,12.30
2023-01-17T13:24:25.850Z,9.53
2023-01-17T13:27:04.169Z,10.90
2023-01-17T13:29:36.430Z,16.73
2023-01-17T13:32:10.657Z,11.47
2023-01-17T13:35:03.668Z,10.97
2023-01-17T13:37:52.883Z,9.10
2023-01-17T13:40:29.652Z,7.40
2023-01-17T13:43:00.606Z,6.53
2023-01-17T13:45:30.562Z,6.33
2023-01-17T13:48:12.073Z,6.43
2023-01-17T13:50:50.720Z,8.53
2023-01-17T13:53:37.799Z,8.20
2023-01-17T13:56:12.560Z,8.03
2023-01-17T14:01:51.482Z,9.57
2023-01-17T14:04:21.164Z,7.07
2023-01-17T14:06:50.947Z,6.73
2023-01-17T14:09:24.314Z,10.47
2023-01-17T14:11:54.860Z,8.20
2023-01-17T14:14:44.454Z,6.20
2023-01-17T14:17:31.389Z,6.17
2023-01-17T14:20:21.499Z,9.50
2023-01-17T14:22:53.426Z,10.37
2023-01-17T14:25:22.618Z,10.10
2023-01-17T14:27:51.720Z,10.27
2023-01-17T14:30:22.226Z,7.93
2023-01-17T14:33:08.687Z,14.67
2023-01-17T14:35:39.690Z,9.03
2023-01-17T14:38:16.955Z,11.60
2023-01-17T14:40:50.748Z,5.33
2023-01-17T14:43:21.399Z,6.53
2023-01-17T14:45:49.847Z,9.70
2023-01-17T14:48:20.012Z,6.83
2023-01-17T14:50:50.618Z,7.40
2023-01-17T14:53:20.236Z,7.57
2023-01-17T14:55:51.649Z,9.70
2023-01-17T14:58:20.286Z,11.53
2023-01-17T15:00:50.028Z,10.27
2023-01-17T15:03:18.999Z,11.20
2023-01-17T15:05:48.775Z,8.80
2023-01-17T15:08:19.352Z,11.90
2023-01-17T15:10:49.861Z,10.67
2023-01-17T15:13:23.406Z,11.20
2023-01-17T15:16:04.825Z,11.27
2023-01-17T15:18:39.693Z,13.00
2023-01-17T15:21:10.612Z,12.43
2023-01-17T15:23:42.399Z,13.47
2023-01-17T15:26:13.035Z,10.90
2023-01-17T15:28:41.601Z,12.43
2023-01-17T15:31:11.596Z,9.63
2023-01-17T15:33:41.271Z,12.20
2023-01-17T15:36:10.589Z,12.67
2023-01-17T15:38:41.359Z,9.73
2023-01-17T15:41:14.689Z,9.57
2023-01-17T15:43:43.506Z,10.80
2023-01-17T15:46:22.923Z,9.97
2023-01-17T15:48:51.674Z,10.17
2023-01-17T15:51:32.565Z,15.10
2023-01-17T15:54:02.201Z,11.97
2023-01-17T15:56:34.719Z,11.63
2023-01-17T15:59:22.527Z,12.13
2023-01-17T16:01:57.403Z,13.43
2023-01-17T16:04:28.038Z,12.03
2023-01-17T16:06:56.314Z,14.73
2023-01-17T16:09:32.869Z,15.30
2023-01-17T16:12:03.478Z,15.70
2023-01-17T16:14:51.324Z,14.87
2023-01-17T16:17:22.170Z,14.97
2023-01-17T16:19:53.651Z,18.27
2023-01-17T16:22:22.043Z,13.27
2023-01-17T16:24:51.921Z,12.63
2023-01-17T16:27:20.209Z,13.30
2023-01-17T16:29:48.456Z,14.90
2023-01-17T16:32:16.658Z,12.00
2023-01-17T16:34:44.846Z,10.37
2023-01-17T16:37:13.200Z,8.87
2023-01-17T16:39:41.431Z,11.90
2023-01-17T16:42:13.555Z,9.03
2023-01-17T16:44:41.790Z,11.20
2023-01-17T16:47:10.079Z,13.27
2023-01-17T16:49:38.941Z,11.90
2023-01-17T16:52:07.227Z,8.80
2023-01-17T16:54:35.462Z,12.10
2023-01-17T16:57:03.688Z,7.93
2023-01-17T16:59:49.675Z,11.43
2023-01-17T17:02:18.647Z,9.03
2023-01-17T17:04:47.000Z,10.60
2023-01-17T17:07:15.277Z,10.73
2023-01-17T17:09:43.483Z,9.73
2023-01-17T17:12:11.690Z,9.97
2023-01-17T17:14:41.289Z,12.83
2023-01-17T17:17:09.584Z,11.10
2023-01-17T17:19:38.024Z,13.53
2023-01-17T17:22:06.961Z,11.97
2023-01-17T17:24:35.358Z,12.13
2023-01-17T17:27:03.593Z,15.93
2023-01-17T17:29:31.820Z,11.10
2023-01-17T17:32:01.402Z,9.60
2023-01-17T17:34:31.788Z,14.50
2023-01-17T17:37:00.229Z,13.47
2023-01-17T17:39:28.942Z,14.57
2023-01-17T17:41:57.194Z,14.07
2023-01-17T17:44:25.459Z,16.53
2023-01-17T17:46:53.745Z,14.73
2023-01-17T17:49:23.427Z,11.87
2023-01-17T17:51:51.777Z,15.73
2023-01-17T17:54:22.222Z,16.27
2023-01-17T17:56:50.429Z,21.10
2023-01-17T17:59:19.502Z,16.87
2023-01-17T18:01:48.183Z,16.50
2023-01-17T18:04:16.454Z,13.30
2023-01-17T18:06:46.170Z,16.23
2023-01-17T18:09:14.796Z,14.03
2023-01-17T18:11:43.981Z,19.73
2023-01-17T18:14:14.305Z,14.00
2023-01-17T18:16:43.359Z,15.43
2023-01-17T18:19:14.223Z,18.37
2023-01-17T18:21:43.009Z,19.13
2023-01-17T18:24:13.469Z,17.40
2023-01-17T18:26:43.325Z,19.93
2023-01-17T18:29:14.726Z,19.03
2023-01-17T18:31:43.572Z,14.30
2023-01-17T18:34:13.009Z,17.97
2023-01-17T18:36:41.296Z,13.17
2023-01-17T18:39:14.370Z,17.57
2023-01-17T18:41:42.812Z,14.67
2023-01-17T18:44:11.687Z,20.80
2023-01-17T18:46:42.015Z,23.13
2023-01-17T18:49:19.488Z,32.33
2023-01-17T18:51:54.062Z,25.17
2023-01-17T18:54:23.720Z,23.00
2023-01-17T18:56:52.618Z,22.37
2023-01-17T18:59:23.503Z,19.03
2023-01-17T19:01:52.167Z,17.27
2023-01-17T19:04:20.532Z,19.43
2023-01-17T19:06:49.543Z,20.53
2023-01-17T19:09:18.192Z,20.90
2023-01-17T19:11:47.790Z,20.23
2023-01-17T19:14:16.139Z,21.10
2023-01-17T19:16:44.952Z,21.90
2023-01-17T19:19:14.299Z,23.97
2023-01-17T19:21:42.622Z,16.30
2023-01-17T19:24:13.087Z,18.63
2023-01-17T19:26:41.571Z,21.53
2023-01-17T19:29:12.070Z,23.03
2023-01-17T19:31:43.202Z,22.17
2023-01-17T19:34:13.663Z,19.67
2023-01-17T19:36:42.459Z,23.87
2023-01-17T19:39:11.027Z,23.83
2023-01-17T19:41:42.471Z,24.57
2023-01-17T19:44:12.909Z,18.90
2023-01-17T19:46:41.178Z,20.63
2023-01-17T19:49:10.373Z,20.27
2023-01-17T19:51:39.947Z,21.90
2023-01-17T19:54:08.526Z,18.03
2023-01-17T19:56:36.885Z,21.00
2023-01-17T19:59:06.060Z,20.07
2023-01-17T20:01:36.476Z,19.87
2023-01-17T20:04:05.654Z,15.03
2023-01-17T20:06:35.192Z,18.83
2023-01-17T20:09:06.402Z,16.17
2023-01-17T20:11:34.739Z,13.43
2023-01-17T20:14:03.419Z,16.87
2023-01-17T20:16:34.192Z,13.17
2023-01-17T20:19:03.862Z,18.07
2023-01-17T20:21:32.730Z,14.17
2023-01-17T20:24:02.984Z,12.07
2023-01-17T20:26:34.876Z,14.70
2023-01-17T20:29:04.273Z,13.50
2023-01-17T20:31:32.711Z,16.20
2023-01-17T20:34:01.069Z,11.00
2023-01-17T20:36:30.694Z,12.23
2023-01-17T20:38:58.944Z,14.83
2023-01-17T20:41:27.975Z,14.93
2023-01-17T20:43:57.003Z,13.03
2023-01-17T20:46:26.827Z,15.73
2023-01-17T20:48:55.762Z,13.60
2023-01-17T20:51:25.099Z,10.53
2023-01-17T20:53:55.953Z,11.37
2023-01-17T20:56:24.656Z,11.73
2023-01-17T20:58:53.405Z,10.77
2023-01-17T21:01:22.828Z,12.17
2023-01-17T21:03:53.145Z,10.43
2023-01-17T21:06:22.655Z,10.93
2023-01-17T21:08:51.302Z,10.60
2023-01-17T21:11:22.597Z,9.23
2023-01-17T21:13:51.341Z,10.60
2023-01-17T21:16:20.431Z,9.77
2023-01-17T21:18:49.099Z,9.70
2023-01-17T21:21:18.744Z,11.60
2023-01-17T21:23:47.488Z,17.27
2023-01-17T21:26:17.073Z,12.73
2023-01-17T21:28:47.988Z,12.77
2023-01-17T21:31:23.173Z,11.50
2023-01-17T21:33:52.613Z,11.47
2023-01-17T21:36:21.162Z,9.50
2023-01-17T21:38:52.124Z,10.63
2023-01-17T21:41:21.124Z,13.33
2023-01-17T21:43:54.888Z,13.87
2023-01-17T21:46:23.318Z,11.87
2023-01-17T21:48:51.727Z,8.10
2023-01-17T21:51:21.788Z,9.50
2023-01-17T21:53:50.294Z,9.80
2023-01-17T21:56:36.329Z,11.47
2023-01-17T21:59:05.976Z,12.50
2023-01-17T22:01:34.851Z,11.87
2023-01-17T22:04:03.885Z,9.77
2023-01-17T22:06:34.360Z,9.73
2023-01-17T22:09:02.787Z,10.07
2023-01-17T22:11:31.338Z,11.63
2023-01-17T22:13:59.811Z,10.63
2023-01-17T22:16:29.482Z,10.70
2023-01-17T22:18:57.771Z,11.40
2023-01-17T22:21:28.099Z,11.90
2023-01-17T22:23:57.685Z,11.33
2023-01-17T22:26:27.101Z,9.53
2023-01-17T22:28:55.891Z,9.20
2023-01-17T22:31:25.093Z,10.07
2023-01-17T22:33:56.299Z,9.10
2023-01-17T22:36:24.790Z,7.93
2023-01-17T22:38:53.676Z,10.60
2023-01-17T22:41:23.112Z,9.87
2023-01-17T22:43:52.124Z,11.37
2023-01-17T22:46:21.818Z,13.73
2023-01-17T22:48:50.450Z,7.87
2023-01-17T22:51:21.088Z,13.50
2023-01-17T22:53:50.216Z,10.00
2023-01-17T22:56:20.214Z,8.80
2023-01-17T22:58:49.168Z,8.63
2023-01-17T23:01:18.665Z,9.57
2023-01-17T23:03:47.760Z,7.13
2023-01-17T23:06:17.106Z,9.20
2023-01-17T23:08:47.414Z,6.57
2023-01-17T23:11:42.407Z,7.20
2023-01-17T23:14:12.115Z,9.17
2023-01-17T23:16:59.107Z,9.87
2023-01-17T23:19:28.595Z,9.57
2023-01-17T23:22:15.792Z,7.87
2023-01-17T23:24:46.177Z,7.90
2023-01-17T23:27:32.934Z,10.73
2023-01-17T23:30:01.252Z,7.70
2023-01-17T23:32:29.889Z,7.60
2023-01-17T23:34:58.229Z,7.73
2023-01-17T23:37:47.786Z,7.87
2023-01-17T23:40:17.980Z,10.00
2023-01-17T23:43:03.949Z,8.20
2023-01-17T23:45:32.255Z,7.00
2023-01-17T23:48:01.352Z,7.03
2023-01-17T23:50:29.891Z,8.17
2023-01-17T23:52:58.496Z,6.30
2023-01-17T23:55:28.436Z,5.60
2023-01-17T23:57:56.683Z,9.00
